Time;durP1;ratioP1;P1;durP2;ratioP2;P2;SDS_P1;SDS_P2;PMS_P1;PMS_P2;Temp;Humidity;BMP_temperature;BMP_pressure;BME280_temperature;BME280_humidity;BME280_pressure;Samples;Min_cycle;Max_cycle;Signal;HPM_P1;HPM_P2
2022/11/07 00:00:19;;;;;;;;;;;;;;;13.14;nan;101160.38;5040280;28;20382;-33
2022/11/07 00:02:44;;;;;;;;;;;;;;;13.13;nan;101154.19;5046286;28;19947;-33
2022/11/07 00:05:10;;;;;;;;;;;;;;;13.16;nan;101142.09;5046257;28;19921;-33
2022/11/07 00:07:35;;;;;;;;;;;;;;;13.16;nan;101142.91;5042703;28;19921;-33
2022/11/07 00:10:01;;;;;;;;;;;;;;;13.19;nan;101152.38;5037146;28;19979;-33
2022/11/07 00:12:26;;;;;;;;;;;;;;;13.19;nan;101149.69;5043197;28;19986;-33
2022/11/07 00:14:51;;;;;;;;;;;;;;;13.17;nan;101152.59;5043872;28;19924;-33
2022/11/07 00:17:17;;;;;;;;;;;;;;;13.12;nan;101155.25;5046776;28;19920;-33
2022/11/07 00:19:42;;;;;;;;;;;;;;;13.16;nan;101150.97;5046334;28;19995;-33
2022/11/07 00:22:08;;;;;;;;;;;;;;;13.19;nan;101147.81;5043410;28;20439;-33
2022/11/07 00:24:33;;;;;;;;;;;;;;;13.14;nan;101160.38;5045140;28;20008;-33
2022/11/07 00:26:58;;;;;;;;;;;;;;;13.12;nan;101157.94;5046386;28;19917;-33
2022/11/07 00:29:24;;;;;;;;;;;;;;;13.14;nan;101149.63;5043135;28;19924;-33
2022/11/07 00:31:49;;;;;;;;;;;;;;;13.16;nan;101153.66;5039457;28;19925;-32
2022/11/07 00:34:14;;;;;;;;;;;;;;;13.14;nan;101144.25;5044956;28;21315;-33
2022/11/07 00:36:40;;;;;;;;;;;;;;;13.14;nan;101146.94;5044867;28;19924;-33
2022/11/07 00:39:06;;;;;;;;;;;;;;;13.14;nan;101155.81;5046622;28;19974;-33
2022/11/07 00:41:31;;;;;;;;;;;;;;;13.17;nan;101155.28;5041099;28;20389;-33
2022/11/07 00:43:56;;;;;;;;;;;;;;;13.16;nan;101142.91;5040110;28;19917;-33
2022/11/07 00:46:22;;;;;;;;;;;;;;;13.13;nan;101145.31;5045891;28;19925;-33
2022/11/07 00:48:47;;;;;;;;;;;;;;;13.13;nan;101153.38;5046547;28;19999;-33
2022/11/07 00:51:15;;;;;;;;;;;;;;;13.13;nan;101153.38;5044065;28;19933;-33
2022/11/07 00:53:40;;;;;;;;;;;;;;;13.13;nan;101142.63;5036886;28;19947;-33
2022/11/07 00:56:07;;;;;;;;;;;;;;;13.14;nan;101146.94;5042512;28;20446;-33
2022/11/07 00:58:32;;;;;;;;;;;;;;;13.15;nan;101151.25;5043225;28;20366;-33
2022/11/07 01:00:58;;;;;;;;;;;;;;;13.18;nan;101131.91;5046012;28;19952;-33
2022/11/07 01:06:08;;;;;;;;;;;;;;;13.18;nan;101131.91;5039470;28;19957;-33
2022/11/07 01:08:34;;;;;;;;;;;;;;;13.22;nan;101124.94;5046632;28;20434;-33
2022/11/07 01:11:01;;;;;;;;;;;;;;;13.23;nan;101124.69;5045069;28;20277;-33
2022/11/07 01:13:27;;;;;;;;;;;;;;;13.23;nan;101121.19;5041709;28;20275;-33
2022/11/07 01:15:52;;;;;;;;;;;;;;;13.25;nan;101127.94;5039918;28;19927;-33
2022/11/07 01:18:18;;;;;;;;;;;;;;;13.26;nan;101126.06;5043686;28;19921;-33
2022/11/07 01:20:43;;;;;;;;;;;;;;;13.30;nan;101121.81;5044560;28;19917;-33
2022/11/07 01:23:08;;;;;;;;;;;;;;;13.33;nan;101123.16;5046101;28;19926;-33
2022/11/07 01:25:37;;;;;;;;;;;;;;;13.38;nan;101124.00;5039154;28;19921;-33
2022/11/07 01:28:03;;;;;;;;;;;;;;;13.38;nan;101118.63;5041907;28;19916;-33
2022/11/07 01:30:28;;;;;;;;;;;;;;;13.39;nan;101120.25;5044218;28;20139;-33
2022/11/07 01:32:54;;;;;;;;;;;;;;;13.39;nan;101114.88;5044069;28;19970;-33
2022/11/07 01:35:19;;;;;;;;;;;;;;;13.37;nan;101116.19;5042359;28;19916;-33
2022/11/07 01:37:44;;;;;;;;;;;;;;;13.30;nan;101116.44;5038273;28;19940;-33
2022/11/07 01:40:10;;;;;;;;;;;;;;;13.28;nan;101107.78;5040138;28;20068;-33
2022/11/07 01:42:35;;;;;;;;;;;;;;;13.26;nan;101110.72;5044018;28;19932;-33
2022/11/07 01:45:01;;;;;;;;;;;;;;;13.20;nan;101105.56;5045517;28;20237;-33
2022/11/07 01:47:29;;;;;;;;;;;;;;;13.20;nan;101105.56;5038726;28;19944;-33
2022/11/07 01:49:54;;;;;;;;;;;;;;;13.24;nan;101106.66;5037988;28;20044;-33
2022/11/07 01:52:22;;;;;;;;;;;;;;;13.28;nan;101107.78;5042258;28;20000;-33
2022/11/07 01:54:50;;;;;;;;;;;;;;;13.25;nan;101106.41;5045386;28;19927;-33
2022/11/07 01:57:28;;;;;;;;;;;;;;;13.27;nan;101090.00;5043937;28;20096;-33
2022/11/07 01:59:55;;;;;;;;;;;;;;;13.31;nan;101099.22;5037725;28;19921;-33
2022/11/07 02:02:22;;;;;;;;;;;;;;;13.34;nan;101096.00;5041100;28;19917;-33
2022/11/07 02:04:48;;;;;;;;;;;;;;;13.44;nan;101097.94;5044722;28;19925;-33
2022/11/07 02:07:13;;;;;;;;;;;;;;;13.50;nan;101100.44;5046104;28;20476;-33
2022/11/07 02:09:38;;;;;;;;;;;;;;;13.53;nan;101097.22;5039818;28;19978;-33
2022/11/07 02:12:04;;;;;;;;;;;;;;;13.51;nan;101096.66;5040446;28;19916;-33
2022/11/07 02:14:30;;;;;;;;;;;;;;;13.55;nan;101097.75;5042163;28;19923;-33
2022/11/07 02:16:55;;;;;;;;;;;;;;;13.60;nan;101102.38;5044507;28;19916;-33
2022/11/07 02:19:41;;;;;;;;;;;;;;;13.65;nan;101096.22;5043134;28;19928;-33
2022/11/07 02:22:25;;;;;;;;;;;;;;;13.64;nan;101089.19;5039323;28;19999;-33
2022/11/07 02:24:52;;;;;;;;;;;;;;;13.60;nan;101095.09;5040844;28;20374;-33
2022/11/07 02:27:20;;;;;;;;;;;;;;;13.63;nan;101095.63;5043061;28;19925;-33
2022/11/07 02:29:47;;;;;;;;;;;;;;;13.67;nan;101080.63;5046254;28;20008;-33
2022/11/07 02:32:12;;;;;;;;;;;;;;;13.72;nan;101080.63;5038336;28;19921;-33
2022/11/07 02:34:38;;;;;;;;;;;;;;;13.72;nan;101086.03;5038438;28;19935;-33
2022/11/07 02:37:05;;;;;;;;;;;;;;;13.76;nan;101077.16;5041757;28;20271;-33
2022/11/07 02:39:31;;;;;;;;;;;;;;;13.81;nan;101087.13;5043982;28;19931;-33
2022/11/07 02:41:58;;;;;;;;;;;;;;;13.85;nan;101085.56;5037611;28;19921;-33
2022/11/07 02:44:24;;;;;;;;;;;;;;;13.86;nan;101089.88;5037070;28;19939;-33
2022/11/07 02:46:49;;;;;;;;;;;;;;;13.90;nan;101094.47;5039686;28;19924;-33
2022/11/07 02:49:14;;;;;;;;;;;;;;;13.95;nan;101084.78;5043354;28;19924;-33
2022/11/07 02:51:40;;;;;;;;;;;;;;;13.95;nan;101080.22;5044665;28;19920;-33
2022/11/07 02:54:05;;;;;;;;;;;;;;;13.94;nan;101073.22;5035686;28;20298;-33
2022/11/07 02:56:30;;;;;;;;;;;;;;;13.95;nan;101084.78;5039575;28;19956;-33
2022/11/07 02:58:56;;;;;;;;;;;;;;;13.91;nan;101079.94;5042598;28;19921;-33
2022/11/07 03:01:21;;;;;;;;;;;;;;;13.89;nan;101075.88;5043225;28;19956;-33
2022/11/07 03:03:48;;;;;;;;;;;;;;;13.89;nan;101086.66;5042227;28;20023;-33
2022/11/07 03:06:14;;;;;;;;;;;;;;;13.92;nan;101078.03;5040841;28;19925;-33
2022/11/07 03:08:41;;;;;;;;;;;;;;;13.93;nan;101076.16;5045369;28;20019;-33
2022/11/07 03:11:08;;;;;;;;;;;;;;;13.95;nan;101082.91;5046801;28;19917;-33
2022/11/07 03:13:33;;;;;;;;;;;;;;;13.97;nan;101078.06;5047144;28;20661;-33
2022/11/07 03:15:58;;;;;;;;;;;;;;;13.95;nan;101076.72;5041783;28;19921;-33
2022/11/07 03:18:24;;;;;;;;;;;;;;;13.92;nan;101069.97;5043490;28;19920;-33
2022/11/07 03:20:49;;;;;;;;;;;;;;;13.91;nan;101068.34;5048812;28;19924;-33
2022/11/07 03:23:15;;;;;;;;;;;;;;;13.90;nan;101085.59;5047294;28;20312;-33
2022/11/07 03:25:40;;;;;;;;;;;;;;;13.90;nan;101077.50;5045780;28;19925;-33
2022/11/07 03:28:06;;;;;;;;;;;;;;;13.94;nan;101091.25;5041330;28;19925;-33
2022/11/07 03:30:31;;;;;;;;;;;;;;;13.95;nan;101096.38;5042860;28;19939;-33
2022/11/07 03:32:56;;;;;;;;;;;;;;;13.99;nan;101088.56;5047086;28;20394;-33
2022/11/07 03:35:22;;;;;;;;;;;;;;;14.03;nan;101093.19;5044904;28;19927;-33
2022/11/07 03:37:48;;;;;;;;;;;;;;;14.04;nan;101094.81;5044449;28;19924;-33
2022/11/07 03:40:14;;;;;;;;;;;;;;;14.07;nan;101099.69;5040197;28;20370;-33
2022/11/07 03:42:39;;;;;;;;;;;;;;;14.08;nan;101103.19;5044241;28;19963;-33
2022/11/07 03:45:06;;;;;;;;;;;;;;;14.08;nan;101105.88;5045362;28;19952;-33
2022/11/07 03:47:38;;;;;;;;;;;;;;;14.07;nan;101110.44;5044590;28;20402;-33
2022/11/07 03:50:04;;;;;;;;;;;;;;;14.06;nan;101106.13;5042592;28;19917;-33
2022/11/07 03:52:29;;;;;;;;;;;;;;;14.08;nan;101104.00;5040731;28;19916;-33
2022/11/07 03:54:54;;;;;;;;;;;;;;;14.08;nan;101101.28;5043991;28;19960;-33
2022/11/07 03:57:20;;;;;;;;;;;;;;;14.10;nan;101096.44;5046453;28;19917;-33
2022/11/07 03:59:45;;;;;;;;;;;;;;;14.14;nan;101099.44;5047471;28;19928;-33
2022/11/07 04:02:11;;;;;;;;;;;;;;;14.18;nan;101101.34;5040602;28;19986;-33
2022/11/07 04:04:36;;;;;;;;;;;;;;;14.21;nan;101100.00;5042178;28;19917;-33
2022/11/07 04:07:02;;;;;;;;;;;;;;;14.20;nan;101101.91;5044521;28;20352;-33
2022/11/07 04:09:27;;;;;;;;;;;;;;;14.22;nan;101096.25;5045270;28;19925;-33
2022/11/07 04:17:20;;;;;;;;;;;;;;;14.27;nan;101100.84;5047964;28;19943;-33
2022/11/07 04:19:47;;;;;;;;;;;;;;;14.30;nan;101103.81;5045848;28;20366;-33
2022/11/07 04:22:12;;;;;;;;;;;;;;;14.27;nan;101107.03;5046417;28;19920;-33
2022/11/07 04:24:37;;;;;;;;;;;;;;;14.29;nan;101106.78;5042777;28;20591;-33
2022/11/07 04:29:47;;;;;;;;;;;;;;;14.30;nan;101114.59;5045631;28;19939;-33
2022/11/07 04:32:12;;;;;;;;;;;;;;;14.28;nan;101110.53;5046843;28;20371;-33
2022/11/07 04:34:37;;;;;;;;;;;;;;;14.28;nan;101118.63;5038867;28;20310;-33
2022/11/07 04:37:02;;;;;;;;;;;;;;;14.23;nan;101110.53;5040848;28;20333;-33
2022/11/07 04:39:28;;;;;;;;;;;;;;;14.18;nan;101109.44;5043207;28;20016;-33
2022/11/07 04:41:55;;;;;;;;;;;;;;;14.14;nan;101111.00;5045852;28;19971;-33
2022/11/07 04:44:20;;;;;;;;;;;;;;;14.13;nan;101114.78;5042335;28;19920;-33
2022/11/07 04:46:45;;;;;;;;;;;;;;;14.11;nan;101116.13;5042398;28;19986;-33
2022/11/07 04:49:13;;;;;;;;;;;;;;;14.10;nan;101114.50;5052078;28;19921;-33
2022/11/07 04:51:43;;;;;;;;;;;;;;;14.10;nan;101109.13;5049216;28;19925;-33
2022/11/07 04:54:14;;;;;;;;;;;;;;;14.13;nan;101112.09;5048753;28;20019;-33
2022/11/07 04:56:40;;;;;;;;;;;;;;;14.12;nan;101110.47;5042774;28;19925;-33
2022/11/07 04:59:05;;;;;;;;;;;;;;;14.15;nan;101106.44;5046030;28;19932;-34
2022/11/07 05:01:31;;;;;;;;;;;;;;;14.18;nan;101109.44;5051080;28;20374;-33
2022/11/07 05:03:56;;;;;;;;;;;;;;;14.19;nan;101108.38;5048953;28;19917;-33
2022/11/07 05:06:22;;;;;;;;;;;;;;;14.19;nan;101108.38;5044047;28;19978;-33
2022/11/07 05:08:47;;;;;;;;;;;;;;;14.14;nan;101102.94;5038553;28;19920;-33
2022/11/07 05:11:13;;;;;;;;;;;;;;;14.14;nan;101116.41;5040398;28;20383;-33
2022/11/07 05:13:38;;;;;;;;;;;;;;;14.17;nan;101104.28;5041443;28;20620;-33
2022/11/07 05:16:03;;;;;;;;;;;;;;;14.13;nan;101104.00;5044572;28;19921;-33
2022/11/07 05:18:29;;;;;;;;;;;;;;;14.11;nan;101108.03;5039785;28;20007;-33
2022/11/07 05:20:54;;;;;;;;;;;;;;;14.15;nan;101109.13;5041777;28;20351;-33
2022/11/07 05:23:20;;;;;;;;;;;;;;;14.10;nan;101114.50;5039874;28;20027;-33
2022/11/07 05:25:46;;;;;;;;;;;;;;;14.09;nan;101113.69;5041030;28;19920;-33
2022/11/07 05:28:16;;;;;;;;;;;;;;;14.10;nan;101118.00;5043680;28;20106;-33
2022/11/07 05:30:44;;;;;;;;;;;;;;;14.14;nan;101116.41;5037151;28;20334;-33
2022/11/07 05:33:10;;;;;;;;;;;;;;;14.12;nan;101115.06;5037261;28;19995;-33
2022/11/07 05:35:36;;;;;;;;;;;;;;;14.13;nan;101116.66;5041138;28;20060;-33
2022/11/07 05:38:02;;;;;;;;;;;;;;;14.16;nan;101125.03;5045497;28;19932;-33
2022/11/07 05:40:27;;;;;;;;;;;;;;;14.19;nan;101119.13;5037648;28;20517;-33
2022/11/07 05:42:57;;;;;;;;;;;;;;;14.23;nan;101118.63;5038839;28;19921;-33
2022/11/07 05:45:22;;;;;;;;;;;;;;;14.26;nan;101123.47;5041660;28;19932;-34
2022/11/07 05:47:48;;;;;;;;;;;;;;;14.30;nan;101129.94;5044454;28;19920;-33
2022/11/07 05:50:13;;;;;;;;;;;;;;;14.27;nan;101127.78;5043456;28;19921;-33
2022/11/07 05:52:38;;;;;;;;;;;;;;;14.29;nan;101134.53;5038517;28;20071;-33
2022/11/07 05:55:04;;;;;;;;;;;;;;;14.28;nan;101132.09;5034249;28;19964;-33
2022/11/07 05:57:30;;;;;;;;;;;;;;;14.30;nan;101136.16;5039586;28;19917;-34
2022/11/07 05:59:55;;;;;;;;;;;;;;;14.26;nan;101145.03;5042876;28;19921;-33
2022/11/07 06:02:20;;;;;;;;;;;;;;;14.25;nan;101135.31;5043949;28;19927;-33
2022/11/07 06:04:45;;;;;;;;;;;;;;;14.23;nan;101132.91;5035458;28;20397;-33
2022/11/07 06:07:11;;;;;;;;;;;;;;;14.23;nan;101134.78;5040796;28;20381;-33
2022/11/07 06:09:36;;;;;;;;;;;;;;;14.27;nan;101138.56;5037921;28;19924;-33
2022/11/07 06:12:02;;;;;;;;;;;;;;;14.28;nan;101145.56;5045811;28;19921;-33
2022/11/07 06:14:28;;;;;;;;;;;;;;;14.28;nan;101143.69;5035522;28;19921;-34
2022/11/07 06:16:53;;;;;;;;;;;;;;;14.32;nan;101154.75;5038025;28;19977;-34
2022/11/07 06:19:18;;;;;;;;;;;;;;;14.30;nan;101155.03;5037663;28;19921;-33
2022/11/07 06:21:44;;;;;;;;;;;;;;;14.33;nan;101151.78;5034352;28;20371;-33
2022/11/07 06:24:09;;;;;;;;;;;;;;;14.40;nan;101163.16;5037045;28;19916;-33
2022/11/07 06:26:34;;;;;;;;;;;;;;;14.45;nan;101159.69;5033912;28;19916;-34
2022/11/07 06:29:00;;;;;;;;;;;;;;;14.51;nan;101161.34;5033855;28;19928;-33
2022/11/07 06:31:25;;;;;;;;;;;;;;;14.50;nan;101157.81;5035377;28;19917;-33
2022/11/07 06:33:51;;;;;;;;;;;;;;;14.54;nan;101173.47;5037189;28;19920;-33
2022/11/07 06:36:16;;;;;;;;;;;;;;;14.57;nan;101175.66;5046954;28;19921;-35
2022/11/07 06:38:41;;;;;;;;;;;;;;;14.58;nan;101172.69;5043878;28;19929;-34
2022/11/07 06:41:08;;;;;;;;;;;;;;;14.56;nan;101176.75;5046252;28;19917;-35
2022/11/07 06:43:34;;;;;;;;;;;;;;;14.55;nan;101186.72;5044037;28;20019;-35
2022/11/07 06:46:03;;;;;;;;;;;;;;;14.56;nan;101182.94;5046314;28;19999;-35
2022/11/07 06:48:29;;;;;;;;;;;;;;;14.61;nan;101185.66;5044558;28;19947;-35
2022/11/07 06:50:55;;;;;;;;;;;;;;;14.63;nan;101191.59;5046062;28;19917;-35
2022/11/07 06:53:21;;;;;;;;;;;;;;;14.65;nan;101192.13;5044757;28;20254;-35
2022/11/07 06:55:46;;;;;;;;;;;;;;;14.68;nan;101194.28;5045568;28;20379;-34
2022/11/07 06:58:11;;;;;;;;;;;;;;;14.68;nan;101198.88;5046045;28;19917;-35
2022/11/07 07:00:37;;;;;;;;;;;;;;;14.67;nan;101187.28;5043826;28;19936;-35
2022/11/07 07:03:02;;;;;;;;;;;;;;;14.67;nan;101192.69;5045136;28;19916;-35
2022/11/07 07:05:27;;;;;;;;;;;;;;;14.64;nan;101200.50;5044080;28;19920;-34
2022/11/07 07:07:53;;;;;;;;;;;;;;;14.60;nan;101192.13;5045920;28;19936;-34
2022/11/07 07:10:19;;;;;;;;;;;;;;;14.65;nan;101202.09;5045736;28;19927;-35
2022/11/07 07:12:44;;;;;;;;;;;;;;;14.63;nan;101199.69;5044635;28;19920;-35
2022/11/07 07:15:09;;;;;;;;;;;;;;;14.59;nan;101203.19;5045439;28;19917;-35
2022/11/07 07:17:35;;;;;;;;;;;;;;;14.60;nan;101205.59;5043861;28;19917;-34
2022/11/07 07:20:00;;;;;;;;;;;;;;;14.65;nan;101207.50;5045148;28;19928;-35
2022/11/07 07:22:25;;;;;;;;;;;;;;;14.64;nan;101203.19;5044041;28;19924;-34
2022/11/07 07:24:52;;;;;;;;;;;;;;;14.64;nan;101198.59;5042444;28;20078;-33
2022/11/07 07:27:19;;;;;;;;;;;;;;;14.67;nan;101218.84;5044811;28;19920;-34
2022/11/07 07:29:44;;;;;;;;;;;;;;;14.68;nan;101215.06;5044004;28;20406;-33
2022/11/07 07:32:10;;;;;;;;;;;;;;;14.72;nan;101205.34;5045582;28;20000;-34
2022/11/07 07:34:35;;;;;;;;;;;;;;;14.67;nan;101203.47;5043648;28;20092;-34
2022/11/07 07:37:00;;;;;;;;;;;;;;;14.69;nan;101209.41;5045825;28;19917;-34
2022/11/07 07:39:26;;;;;;;;;;;;;;;14.71;nan;101209.94;5043197;28;20095;-33
2022/11/07 07:41:52;;;;;;;;;;;;;;;14.78;nan;101210.53;5045013;28;19923;-34
2022/11/07 07:44:17;;;;;;;;;;;;;;;14.75;nan;101216.47;5044954;28;19913;-33
2022/11/07 07:46:42;;;;;;;;;;;;;;;14.74;nan;101203.25;5043771;28;19965;-33
2022/11/07 07:49:08;;;;;;;;;;;;;;;14.79;nan;101211.34;5046541;28;20011;-33
2022/11/07 07:51:33;;;;;;;;;;;;;;;14.85;nan;101207.56;5047393;28;20307;-33
2022/11/07 07:53:58;;;;;;;;;;;;;;;14.95;nan;101214.91;5048019;28;19924;-33
2022/11/07 07:56:24;;;;;;;;;;;;;;;14.95;nan;101212.19;5048065;28;19921;-33
2022/11/07 07:58:49;;;;;;;;;;;;;;;14.95;nan;101217.59;5048417;28;20351;-33
2022/11/07 08:01:15;;;;;;;;;;;;;;;14.93;nan;101219.75;5048832;28;19912;-33
2022/11/07 08:03:40;;;;;;;;;;;;;;;14.98;nan;101225.97;5046426;28;19921;-33
2022/11/07 08:06:06;;;;;;;;;;;;;;;15.03;nan;101227.84;5048571;28;19940;-33
2022/11/07 08:08:31;;;;;;;;;;;;;;;15.06;nan;101233.53;5046700;28;19913;-33
2022/11/07 08:11:01;;;;;;;;;;;;;;;15.03;nan;101212.47;5048374;28;19923;-33
2022/11/07 08:13:26;;;;;;;;;;;;;;;15.10;nan;101217.63;5046399;28;19974;-33
2022/11/07 08:15:52;;;;;;;;;;;;;;;15.08;nan;101217.91;5048203;28;19921;-33
2022/11/07 08:18:18;;;;;;;;;;;;;;;15.13;nan;101219.00;5048745;28;20372;-33
2022/11/07 08:20:44;;;;;;;;;;;;;;;15.22;nan;101223.59;5046980;28;19982;-33
2022/11/07 08:23:10;;;;;;;;;;;;;;;15.32;nan;101222.81;5045830;28;20329;-33
2022/11/07 08:25:36;;;;;;;;;;;;;;;15.28;nan;101217.13;5046177;28;20401;-33
2022/11/07 08:28:01;;;;;;;;;;;;;;;15.31;nan;101221.19;5048062;28;19925;-33
2022/11/07 08:30:27;;;;;;;;;;;;;;;15.35;nan;101228.47;5046315;28;19917;-33
2022/11/07 08:32:53;;;;;;;;;;;;;;;15.39;nan;101226.84;5047657;28;20275;-34
2022/11/07 08:35:18;;;;;;;;;;;;;;;15.40;nan;101224.97;5047956;28;19928;-34
2022/11/07 08:37:44;;;;;;;;;;;;;;;15.52;nan;101216.63;5046598;28;20120;-34
2022/11/07 08:40:09;;;;;;;;;;;;;;;15.52;nan;101216.63;5048012;28;19921;-34
2022/11/07 08:42:35;;;;;;;;;;;;;;;15.63;nan;101220.97;5044532;28;19920;-34
2022/11/07 08:45:00;;;;;;;;;;;;;;;15.71;nan;101221.22;5047256;28;19962;-34
2022/11/07 08:47:27;;;;;;;;;;;;;;;15.69;nan;101222.59;5046222;28;19917;-34
2022/11/07 08:49:52;;;;;;;;;;;;;;;15.76;nan;101223.13;5047392;28;19921;-34
2022/11/07 08:52:17;;;;;;;;;;;;;;;15.83;nan;101228.25;5047880;28;19928;-34
2022/11/07 08:54:43;;;;;;;;;;;;;;;15.87;nan;101234.75;5046599;28;20274;-34
2022/11/07 08:57:09;;;;;;;;;;;;;;;15.98;nan;101231.78;5047757;28;20344;-34
2022/11/07 08:59:34;;;;;;;;;;;;;;;15.95;nan;101237.69;5046023;28;19921;-34
2022/11/07 09:01:59;;;;;;;;;;;;;;;15.95;nan;101245.81;5047006;28;19939;-34
2022/11/07 09:04:25;;;;;;;;;;;;;;;15.94;nan;101244.19;5046130;28;19917;-34
2022/11/07 09:06:50;;;;;;;;;;;;;;;16.02;nan;101248.25;5047749;28;20286;-34
2022/11/07 09:09:15;;;;;;;;;;;;;;;16.05;nan;101241.47;5047754;28;20378;-34
2022/11/07 09:11:41;;;;;;;;;;;;;;;16.10;nan;101250.38;5046003;28;19921;-34
2022/11/07 09:14:06;;;;;;;;;;;;;;;16.06;nan;101256.63;5047049;28;20003;-34
2022/11/07 09:16:32;;;;;;;;;;;;;;;16.12;nan;101258.22;5045829;28;20375;-34
2022/11/07 09:18:57;;;;;;;;;;;;;;;16.14;nan;101259.56;5046817;28;19928;-34
2022/11/07 09:21:22;;;;;;;;;;;;;;;16.21;nan;101267.41;5045926;28;19923;-34
2022/11/07 09:23:48;;;;;;;;;;;;;;;16.22;nan;101267.13;5043750;28;19932;-34
2022/11/07 09:26:13;;;;;;;;;;;;;;;16.28;nan;101268.75;5047356;28;19917;-34
2022/11/07 09:28:39;;;;;;;;;;;;;;;16.28;nan;101273.34;5045476;28;20007;-34
2022/11/07 09:31:04;;;;;;;;;;;;;;;16.30;nan;101265.75;5046073;28;20015;-34
2022/11/07 09:33:30;;;;;;;;;;;;;;;16.39;nan;101271.44;5045626;28;19963;-34
2022/11/07 09:35:59;;;;;;;;;;;;;;;16.46;nan;101264.66;5047496;28;20023;-34
2022/11/07 09:38:25;;;;;;;;;;;;;;;16.51;nan;101270.03;5045733;28;20405;-34
2022/11/07 09:40:56;;;;;;;;;;;;;;;16.50;nan;101273.81;5046758;28;19921;-34
2022/11/07 09:43:21;;;;;;;;;;;;;;;16.55;nan;101267.59;5045411;28;19948;-34
2022/11/07 09:45:52;;;;;;;;;;;;;;;16.56;nan;101275.44;5046494;28;19955;-34
2022/11/07 09:48:21;;;;;;;;;;;;;;;16.59;nan;101272.19;5046862;28;19924;-34
2022/11/07 09:50:48;;;;;;;;;;;;;;;16.57;nan;101266.25;5046225;28;19932;-34
2022/11/07 09:53:34;;;;;;;;;;;;;;;16.55;nan;101281.13;5046134;28;19916;-34
2022/11/07 09:56:02;;;;;;;;;;;;;;;16.58;nan;101269.75;5046813;28;19924;-34
2022/11/07 09:58:45;;;;;;;;;;;;;;;16.56;nan;101275.44;5044829;28;20006;-34
2022/11/07 10:01:13;;;;;;;;;;;;;;;16.56;nan;101280.84;5042890;28;20003;-34
2022/11/07 10:03:39;;;;;;;;;;;;;;;16.66;nan;101290.00;5044069;28;19924;-34
2022/11/07 10:06:04;;;;;;;;;;;;;;;16.62;nan;101276.22;5046866;28;19924;-34
2022/11/07 10:08:49;;;;;;;;;;;;;;;16.65;nan;101277.56;5045016;28;19917;-34
2022/11/07 10:11:33;;;;;;;;;;;;;;;16.66;nan;101279.19;5045237;28;20181;-34
2022/11/07 10:14:08;;;;;;;;;;;;;;;16.69;nan;101270.56;5039397;28;19927;-34
2022/11/07 10:16:36;;;;;;;;;;;;;;;16.71;nan;101277.34;5044258;28;19920;-34
2022/11/07 10:19:01;;;;;;;;;;;;;;;16.76;nan;101273.78;5045816;28;19990;-33
2022/11/07 10:21:41;;;;;;;;;;;;;;;16.83;nan;101272.41;5043837;28;20382;-34
2022/11/07 10:24:25;;;;;;;;;;;;;;;16.87;nan;101268.03;5039045;28;19917;-34
2022/11/07 10:26:50;;;;;;;;;;;;;;;17.01;nan;101268.25;5045457;28;19982;-34
2022/11/07 10:29:19;;;;;;;;;;;;;;;16.95;nan;101277.50;5046545;28;20352;-34
2022/11/07 10:31:56;;;;;;;;;;;;;;;16.99;nan;101269.63;5045371;28;19921;-34
2022/11/07 10:34:35;;;;;;;;;;;;;;;17.05;nan;101272.03;5044520;28;20297;-34
2022/11/07 10:37:01;;;;;;;;;;;;;;;17.13;nan;101276.88;5040096;28;19917;-34
2022/11/07 10:39:28;;;;;;;;;;;;;;;17.17;nan;101279.81;5044090;28;19948;-34
2022/11/07 10:42:05;;;;;;;;;;;;;;;17.16;nan;101283.63;5046309;28;19924;-34
2022/11/07 10:44:32;;;;;;;;;;;;;;;17.25;nan;101275.72;5044148;28;20461;-34
2022/11/07 10:46:57;;;;;;;;;;;;;;;17.28;nan;101275.97;5046362;28;20000;-35
2022/11/07 10:49:27;;;;;;;;;;;;;;;17.31;nan;101272.72;5046011;28;19917;-34
2022/11/07 10:51:53;;;;;;;;;;;;;;;17.39;nan;101277.50;5045890;28;20352;-34
2022/11/07 10:54:24;;;;;;;;;;;;;;;17.42;nan;101278.88;5045787;28;19974;-34
2022/11/07 10:57:00;;;;;;;;;;;;;;;17.43;nan;101275.09;5045835;28;19928;-34
2022/11/07 10:59:27;;;;;;;;;;;;;;;17.52;nan;101274.19;5044533;28;19921;-34
2022/11/07 11:01:54;;;;;;;;;;;;;;;17.65;nan;101275.47;5046051;28;19916;-34
2022/11/07 11:04:20;;;;;;;;;;;;;;;17.72;nan;101275.16;5045442;28;19947;-34
2022/11/07 11:06:54;;;;;;;;;;;;;;;17.81;nan;101260.72;5045358;28;20306;-34
2022/11/07 11:09:20;;;;;;;;;;;;;;;17.92;nan;101268.75;5042706;28;19920;-34
2022/11/07 11:11:49;;;;;;;;;;;;;;;17.99;nan;101270.06;5045035;28;19967;-34
2022/11/07 11:14:17;;;;;;;;;;;;;;;18.05;nan;101260.78;5045458;28;19995;-34
2022/11/07 11:16:42;;;;;;;;;;;;;;;18.03;nan;101259.47;5045218;28;20535;-34
2022/11/07 11:19:34;;;;;;;;;;;;;;;18.13;nan;101259.34;5045487;28;20002;-34
2022/11/07 11:21:59;;;;;;;;;;;;;;;18.33;nan;101258.34;5037648;28;20293;-35
2022/11/07 11:24:29;;;;;;;;;;;;;;;18.42;nan;101240.34;5043086;28;20012;-34
2022/11/07 11:26:56;;;;;;;;;;;;;;;18.50;nan;101247.06;5043396;28;20356;-34
2022/11/07 11:29:21;;;;;;;;;;;;;;;18.63;nan;101247.19;5049073;28;19948;-34
2022/11/07 11:31:49;;;;;;;;;;;;;;;18.70;nan;101247.66;5049155;28;20371;-34
2022/11/07 11:34:20;;;;;;;;;;;;;;;18.89;nan;101236.00;5049393;28;20333;-34
2022/11/07 11:36:55;;;;;;;;;;;;;;;19.04;nan;101240.44;5048806;28;19928;-34
2022/11/07 11:39:25;;;;;;;;;;;;;;;19.20;nan;101237.19;5048186;28;19921;-34
2022/11/07 11:41:57;;;;;;;;;;;;;;;19.25;nan;101236.31;5048779;28;20352;-34
2022/11/07 11:44:36;;;;;;;;;;;;;;;19.39;nan;101229.06;5046197;28;19929;-34
2022/11/07 11:47:07;;;;;;;;;;;;;;;19.53;nan;101227.19;5042013;28;20028;-34
2022/11/07 11:49:44;;;;;;;;;;;;;;;19.47;nan;101233.81;5036619;28;19920;-34
2022/11/07 11:52:19;;;;;;;;;;;;;;;19.36;nan;101237.78;5041271;28;19955;-34
2022/11/07 11:54:45;;;;;;;;;;;;;;;19.33;nan;101238.38;5041461;28;19921;-34
2022/11/07 11:57:23;;;;;;;;;;;;;;;19.28;nan;101243.88;5051540;28;19917;-34
2022/11/07 12:00:02;;;;;;;;;;;;;;;19.26;nan;101248.81;5047417;28;20028;-34
2022/11/07 12:02:28;;;;;;;;;;;;;;;19.32;nan;101237.56;5044809;28;19917;-34
2022/11/07 12:04:56;;;;;;;;;;;;;;;19.39;nan;101250.78;5041810;28;19921;-34
2022/11/07 12:07:24;;;;;;;;;;;;;;;19.48;nan;101230.00;5045071;28;20333;-34
2022/11/07 12:09:53;;;;;;;;;;;;;;;19.65;nan;101240.34;5044056;28;20610;-34
2022/11/07 12:12:24;;;;;;;;;;;;;;;19.83;nan;101230.53;5042153;28;20371;-34
2022/11/07 12:15:11;;;;;;;;;;;;;;;19.99;nan;101233.81;5044756;28;20010;-34
2022/11/07 12:17:37;;;;;;;;;;;;;;;20.11;nan;101239.56;5035549;28;19921;-35
2022/11/07 12:20:02;;;;;;;;;;;;;;;20.07;nan;101238.53;5045515;28;19999;-35
2022/11/07 12:22:39;;;;;;;;;;;;;;;20.07;nan;101241.25;5044050;28;19986;-35
2022/11/07 12:25:11;;;;;;;;;;;;;;;20.07;nan;101236.63;5037396;28;20309;-34
2022/11/07 12:27:55;;;;;;;;;;;;;;;20.09;nan;101237.13;5043109;28;19921;-35
2022/11/07 12:30:21;;;;;;;;;;;;;;;20.15;nan;101226.97;5032226;28;20414;-35
2022/11/07 12:32:55;;;;;;;;;;;;;;;20.05;nan;101235.31;5043316;28;19921;-35
2022/11/07 12:35:39;;;;;;;;;;;;;;;20.03;nan;101235.63;5043168;28;20204;-35
2022/11/07 12:38:23;;;;;;;;;;;;;;;20.12;nan;101238.47;5042714;28;19917;-35
2022/11/07 12:40:57;;;;;;;;;;;;;;;20.27;nan;101237.34;5043425;28;19979;-35
2022/11/07 12:43:23;;;;;;;;;;;;;;;20.45;nan;101223.69;5040593;28;20131;-35
2022/11/07 12:45:58;;;;;;;;;;;;;;;20.68;nan;101229.25;5041758;28;19921;-35
2022/11/07 12:48:26;;;;;;;;;;;;;;;20.88;nan;101217.91;5047323;28;19921;-35
2022/11/07 12:51:14;;;;;;;;;;;;;;;20.98;nan;101216.88;5044373;28;19925;-35
2022/11/07 12:53:39;;;;;;;;;;;;;;;21.16;nan;101226.81;5042562;28;20425;-35
2022/11/07 12:56:07;;;;;;;;;;;;;;;21.30;nan;101229.53;5044662;28;19955;-35
2022/11/07 12:58:33;;;;;;;;;;;;;;;21.51;nan;101224.38;5042643;28;20390;-35
2022/11/07 13:00:59;;;;;;;;;;;;;;;21.91;nan;101217.13;5041214;28;19931;-35
2022/11/07 13:03:50;;;;;;;;;;;;;;;21.90;nan;101219.06;5040738;28;20349;-35
2022/11/07 13:06:16;;;;;;;;;;;;;;;21.74;nan;101227.94;5041109;28;19924;-35
2022/11/07 13:08:41;;;;;;;;;;;;;;;21.55;nan;101220.75;5042419;28;20558;-35